sensor_id;sensor_type;location;lat;lon;timestamp;temperature;humidity
12971;DHT22;6550;48.650;8.774;2023-06-14T00:04:48;10.80;99.90
12971;DHT22;6550;48.650;8.774;2023-06-14T00:07:21;10.50;99.90
12971;DHT22;6550;48.650;8.774;2023-06-14T00:09:59;10.70;99.90
12971;DHT22;6550;48.650;8.774;2023-06-14T00:12:26;10.80;99.90
12971;DHT22;6550;48.650;8.774;2023-06-14T00:14:53;11.10;99.90
12971;DHT22;6550;48.650;8.774;2023-06-14T00:17:19;10.60;99.90
12971;DHT22;6550;48.650;8.774;2023-06-14T00:19:47;10.60;99.90
12971;DHT22;6550;48.650;8.774;2023-06-14T00:22:14;10.50;99.90
12971;DHT22;6550;48.650;8.774;2023-06-14T00:24:41;10.30;99.90
12971;DHT22;6550;48.650;8.774;2023-06-14T00:27:10;10.30;99.90
12971;DHT22;6550;48.650;8.774;2023-06-14T00:29:37;10.30;99.90
12971;DHT22;6550;48.650;8.774;2023-06-14T00:32:04;11.60;99.90
12971;DHT22;6550;48.650;8.774;2023-06-14T00:34:31;10.40;99.90
12971;DHT22;6550;48.650;8.774;2023-06-14T00:37:01;10.40;99.90
12971;DHT22;6550;48.650;8.774;2023-06-14T00:39:28;10.00;99.90
12971;DHT22;6550;48.650;8.774;2023-06-14T00:41:55;9.90;99.90
12971;DHT22;6550;48.650;8.774;2023-06-14T00:44:21;10.00;99.90
12971;DHT22;6550;48.650;8.774;2023-06-14T00:46:51;10.50;99.90
12971;DHT22;6550;48.650;8.774;2023-06-14T00:49:18;10.20;99.90
12971;DHT22;6550;48.650;8.774;2023-06-14T00:51:46;10.10;99.90
12971;DHT22;6550;48.650;8.774;2023-06-14T00:54:13;9.60;99.90
12971;DHT22;6550;48.650;8.774;2023-06-14T00:56:40;9.60;99.90
12971;DHT22;6550;48.650;8.774;2023-06-14T00:59:09;9.50;99.90
12971;DHT22;6550;48.650;8.774;2023-06-14T01:01:37;9.70;99.90
12971;DHT22;6550;48.650;8.774;2023-06-14T01:04:05;9.70;99.90
12971;DHT22;6550;48.650;8.774;2023-06-14T01:06:50;10.80;99.90
12971;DHT22;6550;48.650;8.774;2023-06-14T01:12:50;9.90;99.90
12971;DHT22;6550;48.650;8.774;2023-06-14T01:15:20;11.00;99.90
12971;DHT22;6550;48.650;8.774;2023-06-14T01:17:49;10.10;99.90
12971;DHT22;6550;48.650;8.774;2023-06-14T01:20:20;10.00;99.90
12971;DHT22;6550;48.650;8.774;2023-06-14T01:25:22;10.70;99.90
12971;DHT22;6550;48.650;8.774;2023-06-14T01:28:00;9.40;99.90
12971;DHT22;6550;48.650;8.774;2023-06-14T01:30:33;9.40;99.90
12971;DHT22;6550;48.650;8.774;2023-06-14T01:33:03;9.50;99.90
12971;DHT22;6550;48.650;8.774;2023-06-14T01:35:34;9.40;99.90
12971;DHT22;6550;48.650;8.774;2023-06-14T01:38:02;9.60;99.90
12971;DHT22;6550;48.650;8.774;2023-06-14T01:40:34;9.60;99.90
12971;DHT22;6550;48.650;8.774;2023-06-14T01:43:11;8.70;99.90
12971;DHT22;6550;48.650;8.774;2023-06-14T01:45:48;9.50;99.90
12971;DHT22;6550;48.650;8.774;2023-06-14T01:48:19;9.40;99.90
12971;DHT22;6550;48.650;8.774;2023-06-14T01:50:48;9.10;99.90
12971;DHT22;6550;48.650;8.774;2023-06-14T01:53:15;9.20;99.90
12971;DHT22;6550;48.650;8.774;2023-06-14T01:55:42;10.50;99.90
12971;DHT22;6550;48.650;8.774;2023-06-14T01:58:13;9.30;99.90
12971;DHT22;6550;48.650;8.774;2023-06-14T02:00:40;9.20;99.90
12971;DHT22;6550;48.650;8.774;2023-06-14T02:03:07;9.40;99.90
12971;DHT22;6550;48.650;8.774;2023-06-14T02:05:34;9.30;99.90
12971;DHT22;6550;48.650;8.774;2023-06-14T02:08:08;9.50;99.90
12971;DHT22;6550;48.650;8.774;2023-06-14T02:10:35;9.30;99.90
12971;DHT22;6550;48.650;8.774;2023-06-14T02:13:04;10.30;99.90
12971;DHT22;6550;48.650;8.774;2023-06-14T02:15:31;9.10;99.90
12971;DHT22;6550;48.650;8.774;2023-06-14T02:18:04;9.00;99.90
12971;DHT22;6550;48.650;8.774;2023-06-14T02:20:31;9.10;99.90
12971;DHT22;6550;48.650;8.774;2023-06-14T02:22:58;9.60;99.90
12971;DHT22;6550;48.650;8.774;2023-06-14T02:25:25;9.00;99.90
12971;DHT22;6550;48.650;8.774;2023-06-14T02:27:55;8.80;99.90
12971;DHT22;6550;48.650;8.774;2023-06-14T02:30:22;9.40;99.90
12971;DHT22;6550;48.650;8.774;2023-06-14T02:32:49;8.90;99.90
12971;DHT22;6550;48.650;8.774;2023-06-14T02:35:20;8.50;99.90
12971;DHT22;6550;48.650;8.774;2023-06-14T02:37:48;9.20;99.90
12971;DHT22;6550;48.650;8.774;2023-06-14T02:40:17;9.00;99.90
12971;DHT22;6550;48.650;8.774;2023-06-14T02:42:47;8.80;99.90
12971;DHT22;6550;48.650;8.774;2023-06-14T02:45:16;8.30;99.90
12971;DHT22;6550;48.650;8.774;2023-06-14T02:47:43;8.70;99.90
12971;DHT22;6550;48.650;8.774;2023-06-14T02:50:10;9.60;99.90
12971;DHT22;6550;48.650;8.774;2023-06-14T02:52:40;8.10;99.90
12971;DHT22;6550;48.650;8.774;2023-06-14T02:55:10;8.30;99.90
12971;DHT22;6550;48.650;8.774;2023-06-14T02:57:40;8.60;99.90
12971;DHT22;6550;48.650;8.774;2023-06-14T03:00:07;8.40;99.90
12971;DHT22;6550;48.650;8.774;2023-06-14T03:02:40;8.90;99.90
12971;DHT22;6550;48.650;8.774;2023-06-14T03:05:09;8.90;99.90
12971;DHT22;6550;48.650;8.774;2023-06-14T03:07:39;8.70;99.90
12971;DHT22;6550;48.650;8.774;2023-06-14T03:10:14;8.60;99.90
12971;DHT22;6550;48.650;8.774;2023-06-14T03:12:44;8.30;99.90
12971;DHT22;6550;48.650;8.774;2023-06-14T03:15:11;9.40;99.90
12971;DHT22;6550;48.650;8.774;2023-06-14T03:17:39;9.90;99.90
12971;DHT22;6550;48.650;8.774;2023-06-14T03:20:07;8.80;99.90
12971;DHT22;6550;48.650;8.774;2023-06-14T03:22:35;8.60;99.90
12971;DHT22;6550;48.650;8.774;2023-06-14T03:25:02;8.60;99.90
12971;DHT22;6550;48.650;8.774;2023-06-14T03:27:31;8.50;99.90
12971;DHT22;6550;48.650;8.774;2023-06-14T03:29:58;8.20;99.90
12971;DHT22;6550;48.650;8.774;2023-06-14T03:32:24;8.20;99.90
12971;DHT22;6550;48.650;8.774;2023-06-14T03:34:54;8.40;99.90
12971;DHT22;6550;48.650;8.774;2023-06-14T03:37:24;8.10;99.90
12971;DHT22;6550;48.650;8.774;2023-06-14T03:39:53;8.20;99.90
12971;DHT22;6550;48.650;8.774;2023-06-14T03:42:20;8.30;99.90
12971;DHT22;6550;48.650;8.774;2023-06-14T03:44:47;8.40;99.90
12971;DHT22;6550;48.650;8.774;2023-06-14T03:47:16;8.40;99.90
12971;DHT22;6550;48.650;8.774;2023-06-14T03:49:43;8.40;99.90
12971;DHT22;6550;48.650;8.774;2023-06-14T03:52:10;8.50;99.90
12971;DHT22;6550;48.650;8.774;2023-06-14T03:54:40;8.90;99.90
12971;DHT22;6550;48.650;8.774;2023-06-14T03:57:26;8.50;99.90
12971;DHT22;6550;48.650;8.774;2023-06-14T03:59:53;8.40;99.90
12971;DHT22;6550;48.650;8.774;2023-06-14T04:02:22;9.60;99.90
12971;DHT22;6550;48.650;8.774;2023-06-14T04:04:51;8.70;99.90
12971;DHT22;6550;48.650;8.774;2023-06-14T04:07:21;8.00;99.90
12971;DHT22;6550;48.650;8.774;2023-06-14T04:09:49;9.00;99.90
12971;DHT22;6550;48.650;8.774;2023-06-14T04:12:15;8.20;99.90
12971;DHT22;6550;48.650;8.774;2023-06-14T04:14:43;8.60;99.90
12971;DHT22;6550;48.650;8.774;2023-06-14T04:17:14;8.70;99.90
12971;DHT22;6550;48.650;8.774;2023-06-14T04:19:41;8.80;99.90
12971;DHT22;6550;48.650;8.774;2023-06-14T04:22:08;8.80;99.90
12971;DHT22;6550;48.650;8.774;2023-06-14T04:24:37;9.00;99.90
12971;DHT22;6550;48.650;8.774;2023-06-14T04:27:04;8.80;99.90
12971;DHT22;6550;48.650;8.774;2023-06-14T04:29:31;8.90;99.90
12971;DHT22;6550;48.650;8.774;2023-06-14T04:32:00;8.60;99.90
12971;DHT22;6550;48.650;8.774;2023-06-14T04:34:28;8.90;99.90
12971;DHT22;6550;48.650;8.774;2023-06-14T04:37:03;10.10;99.90
12971;DHT22;6550;48.650;8.774;2023-06-14T04:39:30;8.90;99.90
12971;DHT22;6550;48.650;8.774;2023-06-14T04:41:57;8.60;99.90
12971;DHT22;6550;48.650;8.774;2023-06-14T04:44:27;8.60;99.90
12971;DHT22;6550;48.650;8.774;2023-06-14T04:47:00;8.50;99.90
12971;DHT22;6550;48.650;8.774;2023-06-14T04:49:29;8.70;99.90
12971;DHT22;6550;48.650;8.774;2023-06-14T04:52:00;8.90;99.90
12971;DHT22;6550;48.650;8.774;2023-06-14T04:54:29;9.60;99.90
12971;DHT22;6550;48.650;8.774;2023-06-14T04:57:02;10.10;99.90
12971;DHT22;6550;48.650;8.774;2023-06-14T04:59:29;10.70;99.90
12971;DHT22;6550;48.650;8.774;2023-06-14T05:02:00;10.50;99.90
12971;DHT22;6550;48.650;8.774;2023-06-14T05:04:27;10.70;99.90
12971;DHT22;6550;48.650;8.774;2023-06-14T05:06:56;10.90;99.90
12971;DHT22;6550;48.650;8.774;2023-06-14T05:09:24;11.40;99.90
12971;DHT22;6550;48.650;8.774;2023-06-14T05:11:53;10.90;99.90
12971;DHT22;6550;48.650;8.774;2023-06-14T05:14:19;11.10;99.90
12971;DHT22;6550;48.650;8.774;2023-06-14T05:16:46;11.20;99.90
12971;DHT22;6550;48.650;8.774;2023-06-14T05:19:15;11.30;99.90
12971;DHT22;6550;48.650;8.774;2023-06-14T05:21:44;10.90;99.90
12971;DHT22;6550;48.650;8.774;2023-06-14T05:24:12;11.40;99.90
12971;DHT22;6550;48.650;8.774;2023-06-14T05:26:39;12.20;99.90
12971;DHT22;6550;48.650;8.774;2023-06-14T05:29:08;12.10;99.90
12971;DHT22;6550;48.650;8.774;2023-06-14T05:31:37;12.50;99.90
12971;DHT22;6550;48.650;8.774;2023-06-14T05:34:06;12.90;99.90
12971;DHT22;6550;48.650;8.774;2023-06-14T05:36:33;14.00;98.10
12971;DHT22;6550;48.650;8.774;2023-06-14T05:39:02;13.40;97.30
12971;DHT22;6550;48.650;8.774;2023-06-14T05:44:03;13.40;95.50
12971;DHT22;6550;48.650;8.774;2023-06-14T05:46:34;13.60;96.20
12971;DHT22;6550;48.650;8.774;2023-06-14T05:49:00;14.00;95.10
12971;DHT22;6550;48.650;8.774;2023-06-14T05:51:27;13.70;93.90
12971;DHT22;6550;48.650;8.774;2023-06-14T05:53:57;14.40;94.50
12971;DHT22;6550;48.650;8.774;2023-06-14T05:56:23;13.90;94.00
12971;DHT22;6550;48.650;8.774;2023-06-14T05:58:50;14.40;93.90
12971;DHT22;6550;48.650;8.774;2023-06-14T06:01:17;14.30;93.70
12971;DHT22;6550;48.650;8.774;2023-06-14T06:03:44;14.20;93.70
12971;DHT22;6550;48.650;8.774;2023-06-14T06:08:45;14.40;93.70
12971;DHT22;6550;48.650;8.774;2023-06-14T06:11:12;14.50;93.60
12971;DHT22;6550;48.650;8.774;2023-06-14T06:13:41;15.00;93.80
12971;DHT22;6550;48.650;8.774;2023-06-14T06:16:07;15.00;93.40
12971;DHT22;6550;48.650;8.774;2023-06-14T06:18:37;15.00;93.60
12971;DHT22;6550;48.650;8.774;2023-06-14T06:21:05;15.50;93.50
12971;DHT22;6550;48.650;8.774;2023-06-14T06:23:32;15.40;92.70
12971;DHT22;6550;48.650;8.774;2023-06-14T06:25:59;15.70;91.30
12971;DHT22;6550;48.650;8.774;2023-06-14T06:28:26;15.70;91.10
12971;DHT22;6550;48.650;8.774;2023-06-14T06:33:20;15.50;90.70
12971;DHT22;6550;48.650;8.774;2023-06-14T06:35:47;15.70;90.40
12971;DHT22;6550;48.650;8.774;2023-06-14T06:38:14;16.00;90.30
12971;DHT22;6550;48.650;8.774;2023-06-14T06:43:12;16.40;87.70
12971;DHT22;6550;48.650;8.774;2023-06-14T06:45:43;16.60;88.70
12971;DHT22;6550;48.650;8.774;2023-06-14T06:48:13;16.90;89.40
12971;DHT22;6550;48.650;8.774;2023-06-14T06:50:40;16.90;87.80
12971;DHT22;6550;48.650;8.774;2023-06-14T06:55:36;17.20;86.70
12971;DHT22;6550;48.650;8.774;2023-06-14T06:58:03;18.10;88.30
12971;DHT22;6550;48.650;8.774;2023-06-14T07:02:58;17.90;85.90
12971;DHT22;6550;48.650;8.774;2023-06-14T07:05:28;19.00;84.40
12971;DHT22;6550;48.650;8.774;2023-06-14T07:07:55;18.50;83.50
12971;DHT22;6550;48.650;8.774;2023-06-14T07:10:26;18.80;80.40
12971;DHT22;6550;48.650;8.774;2023-06-14T07:12:55;19.10;81.50
12971;DHT22;6550;48.650;8.774;2023-06-14T07:15:22;19.40;75.40
12971;DHT22;6550;48.650;8.774;2023-06-14T07:17:49;19.40;76.80
12971;DHT22;6550;48.650;8.774;2023-06-14T07:20:17;19.70;73.80
12971;DHT22;6550;48.650;8.774;2023-06-14T07:22:47;20.00;74.10
12971;DHT22;6550;48.650;8.774;2023-06-14T07:25:14;20.00;72.50
12971;DHT22;6550;48.650;8.774;2023-06-14T07:27:43;19.70;73.00
12971;DHT22;6550;48.650;8.774;2023-06-14T07:30:10;19.60;71.80
12971;DHT22;6550;48.650;8.774;2023-06-14T07:32:37;19.70;72.70
12971;DHT22;6550;48.650;8.774;2023-06-14T07:35:07;19.50;69.40
12971;DHT22;6550;48.650;8.774;2023-06-14T07:37:34;19.80;70.20
12971;DHT22;6550;48.650;8.774;2023-06-14T07:40:03;20.10;71.40
12971;DHT22;6550;48.650;8.774;2023-06-14T07:42:36;20.50;69.10
12971;DHT22;6550;48.650;8.774;2023-06-14T07:45:04;20.70;68.30
12971;DHT22;6550;48.650;8.774;2023-06-14T07:47:32;20.80;67.10
12971;DHT22;6550;48.650;8.774;2023-06-14T07:49:59;21.00;65.60
12971;DHT22;6550;48.650;8.774;2023-06-14T07:52:29;21.40;68.40
12971;DHT22;6550;48.650;8.774;2023-06-14T07:54:56;20.60;68.70
12971;DHT22;6550;48.650;8.774;2023-06-14T07:57:27;21.00;66.20
12971;DHT22;6550;48.650;8.774;2023-06-14T07:59:57;21.40;66.40
12971;DHT22;6550;48.650;8.774;2023-06-14T08:02:26;21.10;67.10
12971;DHT22;6550;48.650;8.774;2023-06-14T08:04:55;21.00;66.40
12971;DHT22;6550;48.650;8.774;2023-06-14T08:07:24;20.60;64.80
12971;DHT22;6550;48.650;8.774;2023-06-14T08:09:53;20.60;65.00
12971;DHT22;6550;48.650;8.774;2023-06-14T08:12:20;20.50;65.90
12971;DHT22;6550;48.650;8.774;2023-06-14T08:14:50;20.30;67.10
12971;DHT22;6550;48.650;8.774;2023-06-14T08:17:38;20.50;67.60
12971;DHT22;6550;48.650;8.774;2023-06-14T08:20:07;21.20;67.20
12971;DHT22;6550;48.650;8.774;2023-06-14T08:22:34;21.40;67.30
12971;DHT22;6550;48.650;8.774;2023-06-14T08:25:05;21.50;65.00
12971;DHT22;6550;48.650;8.774;2023-06-14T08:27:33;21.50;64.30
12971;DHT22;6550;48.650;8.774;2023-06-14T08:30:00;21.40;65.20
12971;DHT22;6550;48.650;8.774;2023-06-14T08:32:26;21.00;65.40
12971;DHT22;6550;48.650;8.774;2023-06-14T08:34:56;21.40;66.40
12971;DHT22;6550;48.650;8.774;2023-06-14T08:37:31;21.80;65.20
12971;DHT22;6550;48.650;8.774;2023-06-14T08:40:02;21.40;64.30
12971;DHT22;6550;48.650;8.774;2023-06-14T08:42:33;21.40;65.70
12971;DHT22;6550;48.650;8.774;2023-06-14T08:45:02;21.90;66.70
12971;DHT22;6550;48.650;8.774;2023-06-14T08:47:35;22.10;64.40
12971;DHT22;6550;48.650;8.774;2023-06-14T08:50:08;22.20;65.00
12971;DHT22;6550;48.650;8.774;2023-06-14T08:52:58;22.30;63.60
12971;DHT22;6550;48.650;8.774;2023-06-14T08:55:31;21.90;63.90
12971;DHT22;6550;48.650;8.774;2023-06-14T08:58:02;22.10;63.20
12971;DHT22;6550;48.650;8.774;2023-06-14T09:00:30;22.10;64.00
12971;DHT22;6550;48.650;8.774;2023-06-14T09:02:57;21.90;63.70
12971;DHT22;6550;48.650;8.774;2023-06-14T09:05:28;22.20;63.00
12971;DHT22;6550;48.650;8.774;2023-06-14T09:07:55;22.30;65.60
12971;DHT22;6550;48.650;8.774;2023-06-14T09:10:32;22.50;64.10
12971;DHT22;6550;48.650;8.774;2023-06-14T09:13:05;22.30;63.70
12971;DHT22;6550;48.650;8.774;2023-06-14T09:15:33;22.30;65.40
12971;DHT22;6550;48.650;8.774;2023-06-14T09:18:03;22.60;61.60
12971;DHT22;6550;48.650;8.774;2023-06-14T09:20:31;22.40;64.30
12971;DHT22;6550;48.650;8.774;2023-06-14T09:23:00;22.80;61.90
12971;DHT22;6550;48.650;8.774;2023-06-14T09:25:27;22.80;63.30
12971;DHT22;6550;48.650;8.774;2023-06-14T09:28:08;22.70;64.60
12971;DHT22;6550;48.650;8.774;2023-06-14T09:30:41;22.70;62.10
12971;DHT22;6550;48.650;8.774;2023-06-14T09:33:11;22.70;62.20
12971;DHT22;6550;48.650;8.774;2023-06-14T09:35:45;22.70;63.60
12971;DHT22;6550;48.650;8.774;2023-06-14T09:38:12;22.80;63.80
12971;DHT22;6550;48.650;8.774;2023-06-14T09:40:44;22.20;62.90
12971;DHT22;6550;48.650;8.774;2023-06-14T09:43:11;22.30;61.50
12971;DHT22;6550;48.650;8.774;2023-06-14T09:45:44;22.60;62.00
12971;DHT22;6550;48.650;8.774;2023-06-14T09:48:15;22.80;62.10
12971;DHT22;6550;48.650;8.774;2023-06-14T09:50:46;22.40;64.60
12971;DHT22;6550;48.650;8.774;2023-06-14T09:53:15;22.70;60.90
12971;DHT22;6550;48.650;8.774;2023-06-14T09:55:45;22.90;62.80
12971;DHT22;6550;48.650;8.774;2023-06-14T09:58:16;23.00;61.30
12971;DHT22;6550;48.650;8.774;2023-06-14T10:03:14;23.50;60.20
12971;DHT22;6550;48.650;8.774;2023-06-14T10:05:47;23.50;60.50
12971;DHT22;6550;48.650;8.774;2023-06-14T10:08:19;23.80;59.40
12971;DHT22;6550;48.650;8.774;2023-06-14T10:10:51;23.10;60.50
12971;DHT22;6550;48.650;8.774;2023-06-14T10:13:18;22.80;59.20
12971;DHT22;6550;48.650;8.774;2023-06-14T10:16:05;22.90;59.20
12971;DHT22;6550;48.650;8.774;2023-06-14T10:21:22;23.20;59.90
12971;DHT22;6550;48.650;8.774;2023-06-14T10:23:53;23.00;59.40
12971;DHT22;6550;48.650;8.774;2023-06-14T10:26:24;23.00;57.90
12971;DHT22;6550;48.650;8.774;2023-06-14T10:29:07;23.30;57.70
12971;DHT22;6550;48.650;8.774;2023-06-14T10:34:32;22.80;57.10
12971;DHT22;6550;48.650;8.774;2023-06-14T10:37:05;23.00;58.70
12971;DHT22;6550;48.650;8.774;2023-06-14T10:39:42;22.90;58.30
12971;DHT22;6550;48.650;8.774;2023-06-14T10:42:09;22.90;60.00
12971;DHT22;6550;48.650;8.774;2023-06-14T10:44:45;23.00;57.40
12971;DHT22;6550;48.650;8.774;2023-06-14T10:47:28;23.10;62.10
12971;DHT22;6550;48.650;8.774;2023-06-14T10:49:56;23.40;58.90
12971;DHT22;6550;48.650;8.774;2023-06-14T10:52:26;23.50;59.80
12971;DHT22;6550;48.650;8.774;2023-06-14T10:57:49;23.60;57.80
12971;DHT22;6550;48.650;8.774;2023-06-14T11:00:22;23.70;61.30
12971;DHT22;6550;48.650;8.774;2023-06-14T11:11:10;22.80;56.80
12971;DHT22;6550;48.650;8.774;2023-06-14T11:13:44;22.80;57.60
12971;DHT22;6550;48.650;8.774;2023-06-14T11:16:14;23.20;56.40
12971;DHT22;6550;48.650;8.774;2023-06-14T11:18:42;23.80;55.90
12971;DHT22;6550;48.650;8.774;2023-06-14T11:21:16;23.90;57.10
12971;DHT22;6550;48.650;8.774;2023-06-14T11:23:52;23.70;57.30
12971;DHT22;6550;48.650;8.774;2023-06-14T11:28:57;23.20;58.40
12971;DHT22;6550;48.650;8.774;2023-06-14T11:31:28;23.50;57.60
12971;DHT22;6550;48.650;8.774;2023-06-14T11:33:57;23.70;57.90
12971;DHT22;6550;48.650;8.774;2023-06-14T11:36:28;23.80;57.00
12971;DHT22;6550;48.650;8.774;2023-06-14T11:39:05;23.10;57.80
12971;DHT22;6550;48.650;8.774;2023-06-14T11:41:45;23.40;57.80
12971;DHT22;6550;48.650;8.774;2023-06-14T11:44:17;23.20;59.60
12971;DHT22;6550;48.650;8.774;2023-06-14T11:46:44;23.00;59.90
12971;DHT22;6550;48.650;8.774;2023-06-14T11:49:14;23.10;59.40
12971;DHT22;6550;48.650;8.774;2023-06-14T11:51:43;23.30;58.60
12971;DHT22;6550;48.650;8.774;2023-06-14T11:54:13;23.50;59.80
12971;DHT22;6550;48.650;8.774;2023-06-14T11:56:42;23.60;59.30
12971;DHT22;6550;48.650;8.774;2023-06-14T11:59:09;23.60;59.80
12971;DHT22;6550;48.650;8.774;2023-06-14T12:01:38;23.50;58.50
12971;DHT22;6550;48.650;8.774;2023-06-14T12:04:08;23.70;57.10
12971;DHT22;6550;48.650;8.774;2023-06-14T12:06:39;23.90;57.30
12971;DHT22;6550;48.650;8.774;2023-06-14T12:09:07;23.40;56.10
12971;DHT22;6550;48.650;8.774;2023-06-14T12:11:42;23.60;55.80
12971;DHT22;6550;48.650;8.774;2023-06-14T12:14:09;23.70;55.50
12971;DHT22;6550;48.650;8.774;2023-06-14T12:16:40;23.80;58.50
12971;DHT22;6550;48.650;8.774;2023-06-14T12:19:16;23.90;56.40
12971;DHT22;6550;48.650;8.774;2023-06-14T12:21:46;23.50;58.20
12971;DHT22;6550;48.650;8.774;2023-06-14T12:24:17;23.50;59.50
12971;DHT22;6550;48.650;8.774;2023-06-14T12:29:13;23.20;56.70
12971;DHT22;6550;48.650;8.774;2023-06-14T12:31:40;23.30;57.70
12971;DHT22;6550;48.650;8.774;2023-06-14T12:34:08;23.50;57.00
12971;DHT22;6550;48.650;8.774;2023-06-14T12:36:35;23.20;56.90
12971;DHT22;6550;48.650;8.774;2023-06-14T12:39:13;23.30;57.20
12971;DHT22;6550;48.650;8.774;2023-06-14T12:41:42;23.40;59.10
12971;DHT22;6550;48.650;8.774;2023-06-14T12:44:12;23.60;58.70
12971;DHT22;6550;48.650;8.774;2023-06-14T12:46:40;23.90;57.30
12971;DHT22;6550;48.650;8.774;2023-06-14T12:49:10;23.80;56.30
12971;DHT22;6550;48.650;8.774;2023-06-14T12:51:38;23.60;56.60
12971;DHT22;6550;48.650;8.774;2023-06-14T12:54:09;23.80;57.60
12971;DHT22;6550;48.650;8.774;2023-06-14T12:56:39;23.80;56.90
12971;DHT22;6550;48.650;8.774;2023-06-14T12:59:08;23.80;57.10
12971;DHT22;6550;48.650;8.774;2023-06-14T13:01:37;23.80;54.80
12971;DHT22;6550;48.650;8.774;2023-06-14T13:04:07;23.80;58.40
12971;DHT22;6550;48.650;8.774;2023-06-14T13:06:36;24.10;60.90
12971;DHT22;6550;48.650;8.774;2023-06-14T13:09:03;24.00;56.10
12971;DHT22;6550;48.650;8.774;2023-06-14T13:11:30;24.10;56.10
12971;DHT22;6550;48.650;8.774;2023-06-14T13:13:57;23.60;57.60
12971;DHT22;6550;48.650;8.774;2023-06-14T13:16:26;23.70;59.40
12971;DHT22;6550;48.650;8.774;2023-06-14T13:18:55;23.70;56.30
12971;DHT22;6550;48.650;8.774;2023-06-14T13:21:22;23.80;59.80
12971;DHT22;6550;48.650;8.774;2023-06-14T13:23:51;23.90;59.20
12971;DHT22;6550;48.650;8.774;2023-06-14T13:26:21;23.90;58.90
12971;DHT22;6550;48.650;8.774;2023-06-14T13:28:48;23.90;57.70
12971;DHT22;6550;48.650;8.774;2023-06-14T13:31:14;24.00;56.40
12971;DHT22;6550;48.650;8.774;2023-06-14T13:33:41;24.10;56.10
12971;DHT22;6550;48.650;8.774;2023-06-14T13:36:08;24.40;56.70
12971;DHT22;6550;48.650;8.774;2023-06-14T13:38:38;24.50;55.70
12971;DHT22;6550;48.650;8.774;2023-06-14T13:41:08;24.50;55.40
12971;DHT22;6550;48.650;8.774;2023-06-14T13:43:36;24.30;56.20
12971;DHT22;6550;48.650;8.774;2023-06-14T13:46:03;24.00;55.50
12971;DHT22;6550;48.650;8.774;2023-06-14T13:48:31;23.70;55.30
12971;DHT22;6550;48.650;8.774;2023-06-14T13:51:00;23.50;55.80
12971;DHT22;6550;48.650;8.774;2023-06-14T13:53:27;24.00;56.20
12971;DHT22;6550;48.650;8.774;2023-06-14T13:55:54;24.00;55.60
12971;DHT22;6550;48.650;8.774;2023-06-14T13:58:25;23.90;54.60
12971;DHT22;6550;48.650;8.774;2023-06-14T14:00:52;24.10;55.40
12971;DHT22;6550;48.650;8.774;2023-06-14T14:03:19;23.90;55.10
12971;DHT22;6550;48.650;8.774;2023-06-14T14:05:48;24.00;54.90
12971;DHT22;6550;48.650;8.774;2023-06-14T14:08:15;23.90;54.90
12971;DHT22;6550;48.650;8.774;2023-06-14T14:10:42;23.90;56.40
12971;DHT22;6550;48.650;8.774;2023-06-14T14:13:08;24.40;57.20
12971;DHT22;6550;48.650;8.774;2023-06-14T14:15:35;24.50;59.20
12971;DHT22;6550;48.650;8.774;2023-06-14T14:18:02;24.20;55.70
12971;DHT22;6550;48.650;8.774;2023-06-14T14:20:30;24.50;57.50
12971;DHT22;6550;48.650;8.774;2023-06-14T14:23:00;25.10;55.70
12971;DHT22;6550;48.650;8.774;2023-06-14T14:25:27;25.10;56.30
12971;DHT22;6550;48.650;8.774;2023-06-14T14:27:57;25.30;56.70
12971;DHT22;6550;48.650;8.774;2023-06-14T14:30:23;25.50;54.90
12971;DHT22;6550;48.650;8.774;2023-06-14T14:32:53;25.00;53.10
12971;DHT22;6550;48.650;8.774;2023-06-14T14:35:20;24.80;55.60
12971;DHT22;6550;48.650;8.774;2023-06-14T14:37:50;24.60;54.60
12971;DHT22;6550;48.650;8.774;2023-06-14T14:40:17;24.30;53.60
12971;DHT22;6550;48.650;8.774;2023-06-14T14:42:44;24.70;53.70
12971;DHT22;6550;48.650;8.774;2023-06-14T14:45:11;24.70;53.70
12971;DHT22;6550;48.650;8.774;2023-06-14T14:47:38;24.90;54.30
12971;DHT22;6550;48.650;8.774;2023-06-14T14:50:05;24.80;53.80
12971;DHT22;6550;48.650;8.774;2023-06-14T14:52:37;25.00;57.00
12971;DHT22;6550;48.650;8.774;2023-06-14T14:55:04;25.00;55.60
12971;DHT22;6550;48.650;8.774;2023-06-14T14:57:32;25.30;53.90
12971;DHT22;6550;48.650;8.774;2023-06-14T14:59:59;25.50;54.20
12971;DHT22;6550;48.650;8.774;2023-06-14T15:02:30;24.70;54.20
12971;DHT22;6550;48.650;8.774;2023-06-14T15:04:59;24.70;53.80
12971;DHT22;6550;48.650;8.774;2023-06-14T15:07:30;24.60;52.10
12971;DHT22;6550;48.650;8.774;2023-06-14T15:10:00;24.90;53.10
12971;DHT22;6550;48.650;8.774;2023-06-14T15:12:27;25.00;52.60
12971;DHT22;6550;48.650;8.774;2023-06-14T15:14:56;24.50;54.20
12971;DHT22;6550;48.650;8.774;2023-06-14T15:19:51;24.80;52.50
12971;DHT22;6550;48.650;8.774;2023-06-14T15:22:18;25.10;53.10
12971;DHT22;6550;48.650;8.774;2023-06-14T15:24:47;25.00;54.50
12971;DHT22;6550;48.650;8.774;2023-06-14T15:27:16;25.10;54.60
12971;DHT22;6550;48.650;8.774;2023-06-14T15:32:14;25.00;53.40
12971;DHT22;6550;48.650;8.774;2023-06-14T15:34:43;24.70;54.50
12971;DHT22;6550;48.650;8.774;2023-06-14T15:39:40;24.40;54.70
12971;DHT22;6550;48.650;8.774;2023-06-14T15:42:09;24.40;53.70
12971;DHT22;6550;48.650;8.774;2023-06-14T15:44:38;24.50;54.60
12971;DHT22;6550;48.650;8.774;2023-06-14T15:47:05;24.80;53.70
12971;DHT22;6550;48.650;8.774;2023-06-14T15:49:34;24.80;55.30
12971;DHT22;6550;48.650;8.774;2023-06-14T15:52:00;25.20;52.90
12971;DHT22;6550;48.650;8.774;2023-06-14T15:54:27;24.80;52.80
12971;DHT22;6550;48.650;8.774;2023-06-14T15:56:57;25.20;53.70
12971;DHT22;6550;48.650;8.774;2023-06-14T15:59:26;25.20;55.60
12971;DHT22;6550;48.650;8.774;2023-06-14T16:01:55;25.20;51.70
12971;DHT22;6550;48.650;8.774;2023-06-14T16:04:25;25.30;56.40
12971;DHT22;6550;48.650;8.774;2023-06-14T16:06:54;25.70;53.40
12971;DHT22;6550;48.650;8.774;2023-06-14T16:09:21;25.60;57.50
12971;DHT22;6550;48.650;8.774;2023-06-14T16:11:50;25.40;53.00
12971;DHT22;6550;48.650;8.774;2023-06-14T16:14:17;25.20;53.50
12971;DHT22;6550;48.650;8.774;2023-06-14T16:16:46;25.30;53.00
12971;DHT22;6550;48.650;8.774;2023-06-14T16:19:16;25.00;52.30
12971;DHT22;6550;48.650;8.774;2023-06-14T16:21:44;25.00;55.10
12971;DHT22;6550;48.650;8.774;2023-06-14T16:24:13;25.20;54.10
12971;DHT22;6550;48.650;8.774;2023-06-14T16:26:42;25.30;55.00
12971;DHT22;6550;48.650;8.774;2023-06-14T16:29:09;25.50;53.30
12971;DHT22;6550;48.650;8.774;2023-06-14T16:31:36;25.60;57.40
12971;DHT22;6550;48.650;8.774;2023-06-14T16:34:05;25.70;57.80
12971;DHT22;6550;48.650;8.774;2023-06-14T16:36:40;25.50;59.00
12971;DHT22;6550;48.650;8.774;2023-06-14T16:39:06;25.10;53.80
12971;DHT22;6550;48.650;8.774;2023-06-14T16:41:38;25.50;53.50
12971;DHT22;6550;48.650;8.774;2023-06-14T16:44:04;25.50;53.80
12971;DHT22;6550;48.650;8.774;2023-06-14T16:46:33;25.00;52.10
12971;DHT22;6550;48.650;8.774;2023-06-14T16:49:02;25.60;53.10
12971;DHT22;6550;48.650;8.774;2023-06-14T16:51:34;25.50;53.50
12971;DHT22;6550;48.650;8.774;2023-06-14T16:54:01;25.90;53.40
12971;DHT22;6550;48.650;8.774;2023-06-14T16:56:30;26.20;54.20
12971;DHT22;6550;48.650;8.774;2023-06-14T16:58:58;26.10;52.30